sensor_id;sensor_type;location;lat;lon;timestamp;temperature;humidity
4090;DHT22;2059;48.538;12.146;2022-08-23T00:00:44;19.80;98.20
4090;DHT22;2059;48.538;12.146;2022-08-23T00:05:46;19.70;98.50
4090;DHT22;2059;48.538;12.146;2022-08-23T00:10:48;19.50;99.20
4090;DHT22;2059;48.538;12.146;2022-08-23T00:15:51;19.50;99.30
4090;DHT22;2059;48.538;12.146;2022-08-23T00:20:53;19.50;99.30
4090;DHT22;2059;48.538;12.146;2022-08-23T00:25:54;19.40;99.70
4090;DHT22;2059;48.538;12.146;2022-08-23T00:30:58;19.30;99.90
4090;DHT22;2059;48.538;12.146;2022-08-23T00:36:00;19.50;99.90
4090;DHT22;2059;48.538;12.146;2022-08-23T00:41:02;19.40;99.90
4090;DHT22;2059;48.538;12.146;2022-08-23T00:46:13;19.40;99.90
4090;DHT22;2059;48.538;12.146;2022-08-23T00:51:39;19.30;99.90
4090;DHT22;2059;48.538;12.146;2022-08-23T00:56:43;19.30;99.90
4090;DHT22;2059;48.538;12.146;2022-08-23T01:01:47;19.20;99.90
4090;DHT22;2059;48.538;12.146;2022-08-23T01:06:53;19.20;99.90
4090;DHT22;2059;48.538;12.146;2022-08-23T01:12:02;19.20;99.70
4090;DHT22;2059;48.538;12.146;2022-08-23T01:17:11;19.20;99.90
4090;DHT22;2059;48.538;12.146;2022-08-23T01:22:18;19.00;99.90
4090;DHT22;2059;48.538;12.146;2022-08-23T01:27:23;19.00;99.90
4090;DHT22;2059;48.538;12.146;2022-08-23T01:32:25;19.00;99.90
4090;DHT22;2059;48.538;12.146;2022-08-23T01:37:29;18.90;99.90
4090;DHT22;2059;48.538;12.146;2022-08-23T01:42:32;19.00;99.90
4090;DHT22;2059;48.538;12.146;2022-08-23T01:47:34;18.90;99.90
4090;DHT22;2059;48.538;12.146;2022-08-23T01:52:37;19.00;99.90
4090;DHT22;2059;48.538;12.146;2022-08-23T01:57:41;19.10;99.90
4090;DHT22;2059;48.538;12.146;2022-08-23T02:02:43;19.00;99.90
4090;DHT22;2059;48.538;12.146;2022-08-23T02:07:46;18.90;99.90
4090;DHT22;2059;48.538;12.146;2022-08-23T02:12:50;18.90;99.90
4090;DHT22;2059;48.538;12.146;2022-08-23T02:17:52;18.70;99.90
4090;DHT22;2059;48.538;12.146;2022-08-23T02:22:54;18.70;99.90
4090;DHT22;2059;48.538;12.146;2022-08-23T02:27:57;18.70;99.90
4090;DHT22;2059;48.538;12.146;2022-08-23T02:32:59;18.70;99.90
4090;DHT22;2059;48.538;12.146;2022-08-23T02:38:02;18.70;99.90
4090;DHT22;2059;48.538;12.146;2022-08-23T02:43:06;18.60;99.90
4090;DHT22;2059;48.538;12.146;2022-08-23T02:48:08;18.60;99.90
4090;DHT22;2059;48.538;12.146;2022-08-23T02:53:10;18.50;99.90
4090;DHT22;2059;48.538;12.146;2022-08-23T02:58:13;18.40;99.90
4090;DHT22;2059;48.538;12.146;2022-08-23T03:03:16;18.50;99.90
4090;DHT22;2059;48.538;12.146;2022-08-23T03:08:19;18.50;99.90
4090;DHT22;2059;48.538;12.146;2022-08-23T03:13:22;18.30;99.90
4090;DHT22;2059;48.538;12.146;2022-08-23T03:18:24;18.30;99.90
4090;DHT22;2059;48.538;12.146;2022-08-23T03:23:26;18.30;99.90
4090;DHT22;2059;48.538;12.146;2022-08-23T03:28:30;18.20;99.90
4090;DHT22;2059;48.538;12.146;2022-08-23T03:33:34;18.30;99.90
4090;DHT22;2059;48.538;12.146;2022-08-23T03:38:37;18.20;99.90
4090;DHT22;2059;48.538;12.146;2022-08-23T03:43:40;18.00;99.90
4090;DHT22;2059;48.538;12.146;2022-08-23T03:48:42;18.00;99.90
4090;DHT22;2059;48.538;12.146;2022-08-23T03:53:45;18.00;99.90
4090;DHT22;2059;48.538;12.146;2022-08-23T03:58:50;18.00;99.90
4090;DHT22;2059;48.538;12.146;2022-08-23T04:03:52;17.90;99.90
4090;DHT22;2059;48.538;12.146;2022-08-23T04:08:54;17.70;99.90
4090;DHT22;2059;48.538;12.146;2022-08-23T04:13:57;17.70;99.90
4090;DHT22;2059;48.538;12.146;2022-08-23T04:18:59;17.70;99.90
4090;DHT22;2059;48.538;12.146;2022-08-23T04:24:01;17.70;99.90
4090;DHT22;2059;48.538;12.146;2022-08-23T04:29:05;17.60;99.90
4090;DHT22;2059;48.538;12.146;2022-08-23T04:34:08;17.60;99.90
4090;DHT22;2059;48.538;12.146;2022-08-23T04:39:10;17.60;99.90
4090;DHT22;2059;48.538;12.146;2022-08-23T04:44:13;17.70;99.90
4090;DHT22;2059;48.538;12.146;2022-08-23T04:49:15;17.60;99.90
4090;DHT22;2059;48.538;12.146;2022-08-23T04:54:17;17.50;99.90
4090;DHT22;2059;48.538;12.146;2022-08-23T04:59:21;17.60;99.90
4090;DHT22;2059;48.538;12.146;2022-08-23T05:04:23;17.50;99.90
4090;DHT22;2059;48.538;12.146;2022-08-23T05:09:25;17.60;99.90
4090;DHT22;2059;48.538;12.146;2022-08-23T05:14:28;17.60;99.90
4090;DHT22;2059;48.538;12.146;2022-08-23T05:19:30;17.60;99.90
4090;DHT22;2059;48.538;12.146;2022-08-23T05:24:32;17.60;99.90
4090;DHT22;2059;48.538;12.146;2022-08-23T05:29:35;17.60;99.90
4090;DHT22;2059;48.538;12.146;2022-08-23T05:34:38;17.70;99.90
4090;DHT22;2059;48.538;12.146;2022-08-23T05:39:40;17.70;99.90
4090;DHT22;2059;48.538;12.146;2022-08-23T05:44:44;17.70;99.90
4090;DHT22;2059;48.538;12.146;2022-08-23T05:49:46;17.70;99.90
4090;DHT22;2059;48.538;12.146;2022-08-23T05:54:47;17.90;99.90
4090;DHT22;2059;48.538;12.146;2022-08-23T05:59:51;18.00;99.90
4090;DHT22;2059;48.538;12.146;2022-08-23T06:04:52;18.10;99.90
4090;DHT22;2059;48.538;12.146;2022-08-23T06:09:54;18.10;99.90
4090;DHT22;2059;48.538;12.146;2022-08-23T06:14:57;18.10;99.90
4090;DHT22;2059;48.538;12.146;2022-08-23T06:19:59;18.30;99.90
4090;DHT22;2059;48.538;12.146;2022-08-23T06:25:02;18.30;99.90
4090;DHT22;2059;48.538;12.146;2022-08-23T06:30:06;18.40;99.90
4090;DHT22;2059;48.538;12.146;2022-08-23T06:35:08;18.60;99.90
4090;DHT22;2059;48.538;12.146;2022-08-23T06:40:10;18.80;99.90
4090;DHT22;2059;48.538;12.146;2022-08-23T06:45:14;18.90;99.90
4090;DHT22;2059;48.538;12.146;2022-08-23T06:50:16;19.10;99.90
4090;DHT22;2059;48.538;12.146;2022-08-23T06:55:18;19.40;99.90
4090;DHT22;2059;48.538;12.146;2022-08-23T07:00:22;19.70;99.90
4090;DHT22;2059;48.538;12.146;2022-08-23T07:05:23;20.00;99.90
4090;DHT22;2059;48.538;12.146;2022-08-23T07:10:25;20.30;99.90
4090;DHT22;2059;48.538;12.146;2022-08-23T07:15:28;20.60;99.90
4090;DHT22;2059;48.538;12.146;2022-08-23T07:20:30;20.50;99.80
4090;DHT22;2059;48.538;12.146;2022-08-23T07:25:32;21.00;99.90
4090;DHT22;2059;48.538;12.146;2022-08-23T07:30:35;21.10;99.50
4090;DHT22;2059;48.538;12.146;2022-08-23T07:35:38;21.20;99.00
4090;DHT22;2059;48.538;12.146;2022-08-23T07:40:46;21.40;98.40
4090;DHT22;2059;48.538;12.146;2022-08-23T07:45:49;21.60;97.70
4090;DHT22;2059;48.538;12.146;2022-08-23T07:50:52;21.80;97.70
4090;DHT22;2059;48.538;12.146;2022-08-23T07:55:55;22.10;97.10
4090;DHT22;2059;48.538;12.146;2022-08-23T08:01:08;22.20;96.70
4090;DHT22;2059;48.538;12.146;2022-08-23T08:06:17;22.50;96.90
4090;DHT22;2059;48.538;12.146;2022-08-23T08:11:21;22.70;96.20
4090;DHT22;2059;48.538;12.146;2022-08-23T08:16:27;22.70;95.70
4090;DHT22;2059;48.538;12.146;2022-08-23T08:21:30;23.00;95.00
4090;DHT22;2059;48.538;12.146;2022-08-23T08:26:31;23.20;94.70
4090;DHT22;2059;48.538;12.146;2022-08-23T08:31:35;23.40;93.90
4090;DHT22;2059;48.538;12.146;2022-08-23T08:36:41;23.60;93.20
4090;DHT22;2059;48.538;12.146;2022-08-23T08:41:47;23.90;93.30
4090;DHT22;2059;48.538;12.146;2022-08-23T08:46:54;23.90;92.60
4090;DHT22;2059;48.538;12.146;2022-08-23T08:52:00;24.00;91.80
4090;DHT22;2059;48.538;12.146;2022-08-23T08:57:05;24.00;91.40
4090;DHT22;2059;48.538;12.146;2022-08-23T09:02:15;24.20;90.40
4090;DHT22;2059;48.538;12.146;2022-08-23T09:07:29;24.30;91.00
4090;DHT22;2059;48.538;12.146;2022-08-23T09:12:40;24.50;90.20
4090;DHT22;2059;48.538;12.146;2022-08-23T09:17:50;24.60;87.30
4090;DHT22;2059;48.538;12.146;2022-08-23T09:23:03;24.70;84.50
4090;DHT22;2059;48.538;12.146;2022-08-23T09:28:06;25.00;84.90
4090;DHT22;2059;48.538;12.146;2022-08-23T09:33:16;25.30;86.00
4090;DHT22;2059;48.538;12.146;2022-08-23T09:38:18;25.60;84.10
4090;DHT22;2059;48.538;12.146;2022-08-23T09:43:23;25.70;82.50
4090;DHT22;2059;48.538;12.146;2022-08-23T09:48:37;25.90;82.50
4090;DHT22;2059;48.538;12.146;2022-08-23T09:53:41;26.10;82.30
4090;DHT22;2059;48.538;12.146;2022-08-23T09:58:46;26.20;80.10
4090;DHT22;2059;48.538;12.146;2022-08-23T10:09:32;26.30;77.00
4090;DHT22;2059;48.538;12.146;2022-08-23T10:14:34;26.50;75.20
4090;DHT22;2059;48.538;12.146;2022-08-23T10:19:41;26.60;75.60
4090;DHT22;2059;48.538;12.146;2022-08-23T10:24:47;26.70;76.10
4090;DHT22;2059;48.538;12.146;2022-08-23T10:29:52;26.80;76.40
4090;DHT22;2059;48.538;12.146;2022-08-23T10:35:06;26.90;73.00
4090;DHT22;2059;48.538;12.146;2022-08-23T10:40:17;27.00;74.30
4090;DHT22;2059;48.538;12.146;2022-08-23T10:45:25;27.10;74.10
4090;DHT22;2059;48.538;12.146;2022-08-23T10:50:37;27.30;74.60
4090;DHT22;2059;48.538;12.146;2022-08-23T10:55:44;27.50;72.70
4090;DHT22;2059;48.538;12.146;2022-08-23T11:01:02;27.60;72.30
4090;DHT22;2059;48.538;12.146;2022-08-23T11:06:46;27.70;69.60
4090;DHT22;2059;48.538;12.146;2022-08-23T11:12:00;27.80;68.20
4090;DHT22;2059;48.538;12.146;2022-08-23T11:17:07;27.80;69.00
4090;DHT22;2059;48.538;12.146;2022-08-23T11:22:15;27.70;69.70
4090;DHT22;2059;48.538;12.146;2022-08-23T11:27:36;27.80;68.10
4090;DHT22;2059;48.538;12.146;2022-08-23T11:32:42;27.90;66.90
4090;DHT22;2059;48.538;12.146;2022-08-23T11:37:54;27.90;66.80
4090;DHT22;2059;48.538;12.146;2022-08-23T11:43:03;28.00;66.60
4090;DHT22;2059;48.538;12.146;2022-08-23T11:48:15;27.90;66.00
4090;DHT22;2059;48.538;12.146;2022-08-23T11:53:31;28.10;65.70
4090;DHT22;2059;48.538;12.146;2022-08-23T12:04:10;28.10;64.10
4090;DHT22;2059;48.538;12.146;2022-08-23T12:09:50;27.90;63.00
4090;DHT22;2059;48.538;12.146;2022-08-23T12:14:54;28.10;65.60
4090;DHT22;2059;48.538;12.146;2022-08-23T12:19:59;28.20;64.20
4090;DHT22;2059;48.538;12.146;2022-08-23T12:25:16;28.30;62.70
4090;DHT22;2059;48.538;12.146;2022-08-23T12:30:21;28.30;61.80
4090;DHT22;2059;48.538;12.146;2022-08-23T12:35:37;28.20;62.70
4090;DHT22;2059;48.538;12.146;2022-08-23T12:40:43;28.40;63.10
4090;DHT22;2059;48.538;12.146;2022-08-23T12:45:48;28.30;60.40
4090;DHT22;2059;48.538;12.146;2022-08-23T12:50:54;28.30;60.60
4090;DHT22;2059;48.538;12.146;2022-08-23T12:56:01;28.10;59.20
4090;DHT22;2059;48.538;12.146;2022-08-23T13:01:06;28.10;59.30
4090;DHT22;2059;48.538;12.146;2022-08-23T13:06:12;28.30;59.80
4090;DHT22;2059;48.538;12.146;2022-08-23T13:11:19;28.50;59.50
4090;DHT22;2059;48.538;12.146;2022-08-23T13:16:25;28.50;58.20
4090;DHT22;2059;48.538;12.146;2022-08-23T13:21:29;28.40;58.40
4090;DHT22;2059;48.538;12.146;2022-08-23T13:26:37;28.40;59.00
4090;DHT22;2059;48.538;12.146;2022-08-23T13:31:55;28.40;57.70
4090;DHT22;2059;48.538;12.146;2022-08-23T13:36:58;28.40;58.30
4090;DHT22;2059;48.538;12.146;2022-08-23T13:42:02;28.40;58.40
4090;DHT22;2059;48.538;12.146;2022-08-23T13:47:04;28.40;59.30
4090;DHT22;2059;48.538;12.146;2022-08-23T13:52:08;28.50;59.90
4090;DHT22;2059;48.538;12.146;2022-08-23T13:57:13;28.30;59.30
4090;DHT22;2059;48.538;12.146;2022-08-23T14:02:17;28.40;61.00
4090;DHT22;2059;48.538;12.146;2022-08-23T14:07:19;28.40;62.10
4090;DHT22;2059;48.538;12.146;2022-08-23T14:12:26;28.40;59.60
4090;DHT22;2059;48.538;12.146;2022-08-23T14:17:30;28.30;60.00
4090;DHT22;2059;48.538;12.146;2022-08-23T14:22:32;28.20;60.70
4090;DHT22;2059;48.538;12.146;2022-08-23T14:27:37;28.30;60.10
4090;DHT22;2059;48.538;12.146;2022-08-23T14:32:38;28.30;61.50
4090;DHT22;2059;48.538;12.146;2022-08-23T14:37:41;28.30;59.00
4090;DHT22;2059;48.538;12.146;2022-08-23T14:42:45;28.20;59.10
4090;DHT22;2059;48.538;12.146;2022-08-23T14:47:47;28.10;58.20
4090;DHT22;2059;48.538;12.146;2022-08-23T14:52:49;28.00;59.80
4090;DHT22;2059;48.538;12.146;2022-08-23T14:57:52;27.90;59.90
4090;DHT22;2059;48.538;12.146;2022-08-23T15:02:54;27.90;61.10
4090;DHT22;2059;48.538;12.146;2022-08-23T15:07:56;28.00;60.00
4090;DHT22;2059;48.538;12.146;2022-08-23T15:12:59;28.00;61.30
4090;DHT22;2059;48.538;12.146;2022-08-23T15:18:03;28.10;60.00
4090;DHT22;2059;48.538;12.146;2022-08-23T15:23:08;28.30;61.60
4090;DHT22;2059;48.538;12.146;2022-08-23T15:28:13;28.40;60.80
4090;DHT22;2059;48.538;12.146;2022-08-23T15:33:15;28.40;61.40
4090;DHT22;2059;48.538;12.146;2022-08-23T15:38:18;28.30;59.70
4090;DHT22;2059;48.538;12.146;2022-08-23T15:43:23;28.40;59.70
4090;DHT22;2059;48.538;12.146;2022-08-23T15:48:26;28.40;60.30
4090;DHT22;2059;48.538;12.146;2022-08-23T15:53:30;28.40;58.80
4090;DHT22;2059;48.538;12.146;2022-08-23T15:58:33;28.20;59.70
4090;DHT22;2059;48.538;12.146;2022-08-23T16:03:38;28.40;59.10
4090;DHT22;2059;48.538;12.146;2022-08-23T16:08:44;28.70;62.10
4090;DHT22;2059;48.538;12.146;2022-08-23T16:13:49;29.00;59.10
4090;DHT22;2059;48.538;12.146;2022-08-23T16:18:52;29.30;57.60
4090;DHT22;2059;48.538;12.146;2022-08-23T16:23:55;29.30;56.80
4090;DHT22;2059;48.538;12.146;2022-08-23T16:28:59;29.50;56.50
4090;DHT22;2059;48.538;12.146;2022-08-23T16:34:02;33.80;51.00
4090;DHT22;2059;48.538;12.146;2022-08-23T16:39:05;38.70;42.60
4090;DHT22;2059;48.538;12.146;2022-08-23T16:44:08;35.90;43.20
4090;DHT22;2059;48.538;12.146;2022-08-23T16:49:10;31.90;49.60
4090;DHT22;2059;48.538;12.146;2022-08-23T16:54:14;29.90;52.10
4090;DHT22;2059;48.538;12.146;2022-08-23T16:59:20;28.70;53.60
4090;DHT22;2059;48.538;12.146;2022-08-23T17:04:23;28.00;54.30
4090;DHT22;2059;48.538;12.146;2022-08-23T17:09:26;27.40;54.70
4090;DHT22;2059;48.538;12.146;2022-08-23T17:14:30;27.10;55.60
4090;DHT22;2059;48.538;12.146;2022-08-23T17:19:32;26.80;55.10
4090;DHT22;2059;48.538;12.146;2022-08-23T17:24:35;26.50;55.70
4090;DHT22;2059;48.538;12.146;2022-08-23T17:29:38;26.30;56.00
4090;DHT22;2059;48.538;12.146;2022-08-23T17:34:40;26.10;56.20
4090;DHT22;2059;48.538;12.146;2022-08-23T17:39:42;26.00;58.20
4090;DHT22;2059;48.538;12.146;2022-08-23T17:44:45;25.80;57.70
4090;DHT22;2059;48.538;12.146;2022-08-23T17:49:47;25.70;57.90
4090;DHT22;2059;48.538;12.146;2022-08-23T17:54:49;25.50;58.90
4090;DHT22;2059;48.538;12.146;2022-08-23T17:59:52;25.40;59.60
4090;DHT22;2059;48.538;12.146;2022-08-23T18:04:54;25.20;60.80
4090;DHT22;2059;48.538;12.146;2022-08-23T18:09:56;25.10;61.40
4090;DHT22;2059;48.538;12.146;2022-08-23T18:14:59;25.00;61.90
4090;DHT22;2059;48.538;12.146;2022-08-23T18:20:05;24.90;63.20
4090;DHT22;2059;48.538;12.146;2022-08-23T18:25:09;24.70;64.50
4090;DHT22;2059;48.538;12.146;2022-08-23T18:30:14;24.50;65.40
4090;DHT22;2059;48.538;12.146;2022-08-23T18:35:16;24.40;66.60
4090;DHT22;2059;48.538;12.146;2022-08-23T18:40:19;24.20;66.80
4090;DHT22;2059;48.538;12.146;2022-08-23T18:45:22;24.00;69.40
4090;DHT22;2059;48.538;12.146;2022-08-23T18:50:24;23.90;69.80
4090;DHT22;2059;48.538;12.146;2022-08-23T18:55:26;23.80;70.70
4090;DHT22;2059;48.538;12.146;2022-08-23T19:00:30;23.60;72.30
4090;DHT22;2059;48.538;12.146;2022-08-23T19:05:32;23.60;74.90
4090;DHT22;2059;48.538;12.146;2022-08-23T19:10:35;23.50;76.90
4090;DHT22;2059;48.538;12.146;2022-08-23T19:15:38;23.50;80.90
4090;DHT22;2059;48.538;12.146;2022-08-23T19:20:41;23.40;82.40
4090;DHT22;2059;48.538;12.146;2022-08-23T19:25:43;23.40;84.00
4090;DHT22;2059;48.538;12.146;2022-08-23T19:30:47;23.20;83.10
4090;DHT22;2059;48.538;12.146;2022-08-23T19:35:49;23.20;83.90
4090;DHT22;2059;48.538;12.146;2022-08-23T19:40:51;23.00;84.30
4090;DHT22;2059;48.538;12.146;2022-08-23T19:45:54;23.00;84.80
4090;DHT22;2059;48.538;12.146;2022-08-23T19:50:56;22.90;86.10
4090;DHT22;2059;48.538;12.146;2022-08-23T19:56:00;22.90;86.80
4090;DHT22;2059;48.538;12.146;2022-08-23T20:01:04;22.80;88.20
4090;DHT22;2059;48.538;12.146;2022-08-23T20:06:06;22.70;89.50
4090;DHT22;2059;48.538;12.146;2022-08-23T20:11:08;22.50;90.70
4090;DHT22;2059;48.538;12.146;2022-08-23T20:16:11;22.50;91.00
4090;DHT22;2059;48.538;12.146;2022-08-23T20:21:13;22.50;91.40
4090;DHT22;2059;48.538;12.146;2022-08-23T20:26:15;22.60;91.90
4090;DHT22;2059;48.538;12.146;2022-08-23T20:31:21;22.40;92.40
4090;DHT22;2059;48.538;12.146;2022-08-23T20:36:23;22.30;92.20
4090;DHT22;2059;48.538;12.146;2022-08-23T20:41:29;22.30;92.40
4090;DHT22;2059;48.538;12.146;2022-08-23T20:46:33;22.10;92.30
4090;DHT22;2059;48.538;12.146;2022-08-23T20:51:38;22.10;92.40
4090;DHT22;2059;48.538;12.146;2022-08-23T20:56:41;22.10;92.60
4090;DHT22;2059;48.538;12.146;2022-08-23T21:01:44;22.20;93.00
4090;DHT22;2059;48.538;12.146;2022-08-23T21:06:49;22.00;93.40
4090;DHT22;2059;48.538;12.146;2022-08-23T21:11:51;22.10;93.50
4090;DHT22;2059;48.538;12.146;2022-08-23T21:16:54;22.10;94.00
4090;DHT22;2059;48.538;12.146;2022-08-23T21:21:56;21.80;94.00
4090;DHT22;2059;48.538;12.146;2022-08-23T21:26:58;21.80;94.50
4090;DHT22;2059;48.538;12.146;2022-08-23T21:32:02;21.70;94.90
4090;DHT22;2059;48.538;12.146;2022-08-23T21:37:04;21.60;95.00
4090;DHT22;2059;48.538;12.146;2022-08-23T21:42:06;21.50;95.40
4090;DHT22;2059;48.538;12.146;2022-08-23T21:47:09;21.50;95.90
4090;DHT22;2059;48.538;12.146;2022-08-23T21:52:11;21.40;96.00
4090;DHT22;2059;48.538;12.146;2022-08-23T21:57:13;21.40;96.20
4090;DHT22;2059;48.538;12.146;2022-08-23T22:02:17;21.30;96.40
4090;DHT22;2059;48.538;12.146;2022-08-23T22:07:19;21.30;96.40
4090;DHT22;2059;48.538;12.146;2022-08-23T22:12:22;21.20;96.80
4090;DHT22;2059;48.538;12.146;2022-08-23T22:17:25;21.10;97.00
4090;DHT22;2059;48.538;12.146;2022-08-23T22:22:27;21.20;97.20
4090;DHT22;2059;48.538;12.146;2022-08-23T22:27:29;21.00;97.60
4090;DHT22;2059;48.538;12.146;2022-08-23T22:32:33;20.90;97.90
4090;DHT22;2059;48.538;12.146;2022-08-23T22:37:35;20.90;98.10
4090;DHT22;2059;48.538;12.146;2022-08-23T22:42:38;20.90;98.30
4090;DHT22;2059;48.538;12.146;2022-08-23T22:47:41;20.90;98.50
4090;DHT22;2059;48.538;12.146;2022-08-23T22:52:44;20.70;98.60
4090;DHT22;2059;48.538;12.146;2022-08-23T22:57:45;20.60;99.10
4090;DHT22;2059;48.538;12.146;2022-08-23T23:02:49;20.50;99.20
4090;DHT22;2059;48.538;12.146;2022-08-23T23:07:50;20.50;99.60
4090;DHT22;2059;48.538;12.146;2022-08-23T23:13:10;20.40;99.70
4090;DHT22;2059;48.538;12.146;2022-08-23T23:18:13;20.30;99.90
4090;DHT22;2059;48.538;12.146;2022-08-23T23:23:18;20.30;99.90
4090;DHT22;2059;48.538;12.146;2022-08-23T23:28:21;20.30;99.90
4090;DHT22;2059;48.538;12.146;2022-08-23T23:33:24;20.20;99.90
4090;DHT22;2059;48.538;12.146;2022-08-23T23:38:26;20.20;99.90
4090;DHT22;2059;48.538;12.146;2022-08-23T23:43:28;20.10;99.90
4090;DHT22;2059;48.538;12.146;2022-08-23T23:48:31;20.10;99.90
4090;DHT22;2059;48.538;12.146;2022-08-23T23:53:34;20.00;99.90
4090;DHT22;2059;48.538;12.146;2022-08-23T23:58:36;19.90;99.90
